createdAt,value
2023-03-23T15:58:30.456Z,99719.73
2023-03-23T16:00:58.466Z,99719.25
2023-03-23T16:03:27.985Z,99717.45
2023-03-23T16:05:57.170Z,99719.52
2023-03-23T16:08:24.204Z,99722.14
2023-03-23T16:10:52.232Z,99720.27
2023-03-23T16:13:21.375Z,99721.67
2023-03-23T16:15:47.970Z,99723.34
2023-03-23T16:18:20.992Z,99722.80
2023-03-23T16:20:48.857Z,99723.61
2023-03-23T16:23:15.968Z,99725.92
2023-03-23T16:25:43.189Z,99723.49
2023-03-23T16:28:13.176Z,99724.35
2023-03-23T16:30:41.739Z,99724.61
2023-03-23T16:33:08.526Z,99724.48
2023-03-23T16:35:35.892Z,99725.80
2023-03-23T16:38:09.459Z,99727.17
2023-03-23T16:40:39.248Z,99725.59
2023-03-23T16:43:09.021Z,99723.98
2023-03-23T16:45:37.653Z,99729.41
2023-03-23T16:48:04.842Z,99728.83
2023-03-23T16:50:33.357Z,99728.85
2023-03-23T16:53:01.033Z,99730.46
2023-03-23T16:55:27.900Z,99728.69
2023-03-23T16:58:13.158Z,99727.11
2023-03-23T17:00:48.829Z,99729.53
2023-03-23T17:03:16.016Z,99730.36
2023-03-23T17:05:44.325Z,99730.83
2023-03-23T17:08:11.641Z,99734.52
2023-03-23T17:10:43.164Z,99727.27
2023-03-23T17:13:10.494Z,99733.38
2023-03-23T17:15:39.588Z,99727.84
2023-03-23T17:18:08.144Z,99734.77
2023-03-23T17:20:35.072Z,99735.77
2023-03-23T17:23:01.752Z,99736.14
2023-03-23T17:25:30.248Z,99737.55
2023-03-23T17:27:57.619Z,99733.87
2023-03-23T17:30:33.970Z,99733.48
2023-03-23T17:33:01.115Z,99735.23
2023-03-23T17:35:28.077Z,99740.36
2023-03-23T17:37:56.648Z,99737.10
2023-03-23T17:40:23.905Z,99737.98
2023-03-23T17:42:50.455Z,99735.15
2023-03-23T17:45:18.207Z,99737.83
2023-03-23T17:47:45.437Z,99735.72
2023-03-23T17:50:17.995Z,99737.28
2023-03-23T17:52:46.730Z,99737.20
2023-03-23T17:55:13.458Z,99739.88
2023-03-23T17:57:44.073Z,99738.34
2023-03-23T18:00:12.568Z,99740.34
2023-03-23T18:02:40.386Z,99741.04
2023-03-23T18:05:08.656Z,99736.16
2023-03-23T18:07:36.278Z,99733.81
2023-03-23T18:10:10.863Z,99733.73
2023-03-23T18:12:41.660Z,99730.17
2023-03-23T18:15:09.075Z,99727.70
2023-03-23T18:17:35.949Z,99727.77
2023-03-23T18:20:03.899Z,99730.36
2023-03-23T18:22:30.743Z,99729.20
2023-03-23T18:24:57.809Z,99726.44
2023-03-23T18:27:25.589Z,99727.44
2023-03-23T18:29:52.487Z,99723.41
2023-03-23T18:32:20.137Z,99727.30
2023-03-23T18:34:48.077Z,99722.77
2023-03-23T18:37:14.981Z,99724.16
2023-03-23T18:39:41.617Z,99719.20
2023-03-23T18:42:08.660Z,99718.59
2023-03-23T18:44:35.456Z,99719.42
2023-03-23T18:47:01.999Z,99721.23
2023-03-23T18:49:29.739Z,99718.44
2023-03-23T18:51:57.545Z,99721.75
2023-03-23T18:54:25.156Z,99722.83
2023-03-23T18:56:51.823Z,99728.22
2023-03-23T18:59:19.328Z,99722.98
2023-03-23T19:01:46.288Z,99726.91
2023-03-23T19:04:13.863Z,99722.92
2023-03-23T19:06:40.876Z,99717.34
2023-03-23T19:09:07.576Z,99713.94
2023-03-23T19:11:37.231Z,99714.73
2023-03-23T19:14:04.526Z,99713.52
2023-03-23T19:16:32.007Z,99709.81
2023-03-23T19:19:01.079Z,99711.47
2023-03-23T19:21:29.919Z,99711.34
2023-03-23T19:23:58.070Z,99712.54
2023-03-23T19:26:35.840Z,99709.66
2023-03-23T19:31:36.110Z,99714.67
2023-03-23T19:34:03.296Z,99720.41
2023-03-23T19:36:30.874Z,99718.42
2023-03-23T19:38:57.465Z,99714.55
2023-03-23T19:43:52.498Z,99714.11
2023-03-23T19:46:19.605Z,99712.41
2023-03-23T19:48:47.234Z,99708.30
2023-03-23T19:51:15.458Z,99705.23
2023-03-23T19:53:42.080Z,99706.80
2023-03-23T19:56:13.401Z,99707.32
2023-03-23T19:58:40.720Z,99706.53
2023-03-23T20:01:08.182Z,99707.59
2023-03-23T20:03:36.877Z,99707.98
2023-03-23T20:06:06.004Z,99712.50
2023-03-23T20:08:35.048Z,99710.41
2023-03-23T20:11:06.072Z,99709.29
2023-03-23T20:13:36.481Z,99707.52
2023-03-23T20:16:03.340Z,99704.09
2023-03-23T20:18:30.277Z,99703.56
2023-03-23T20:21:04.805Z,99700.17
2023-03-23T20:23:32.243Z,99695.79
2023-03-23T20:26:14.277Z,99693.90
2023-03-23T20:28:42.409Z,99693.55
2023-03-23T20:31:16.814Z,99693.08
2023-03-23T20:34:00.474Z,99693.80
2023-03-23T20:36:36.062Z,99692.20
2023-03-23T20:39:11.408Z,99685.41
2023-03-23T20:41:39.612Z,99684.38
2023-03-23T20:44:08.737Z,99686.16
2023-03-23T20:46:38.557Z,99684.60
2023-03-23T20:49:05.376Z,99679.32
2023-03-23T20:51:35.412Z,99680.55
2023-03-23T20:54:03.202Z,99683.09
2023-03-23T20:56:30.762Z,99675.97
2023-03-23T20:58:59.956Z,99675.61
2023-03-23T21:01:26.888Z,99673.48
2023-03-23T21:03:53.617Z,99674.93
2023-03-23T21:06:20.449Z,99673.80
2023-03-23T21:08:48.373Z,99672.78
2023-03-23T21:11:19.389Z,99671.77
2023-03-23T21:13:46.177Z,99666.66
2023-03-23T21:16:13.407Z,99669.65
2023-03-23T21:18:41.682Z,99665.62
2023-03-23T21:21:14.193Z,99664.28
2023-03-23T21:23:45.932Z,99660.13
2023-03-23T21:26:15.465Z,99662.89
2023-03-23T21:28:42.960Z,99666.95
2023-03-23T21:31:09.594Z,99660.64
2023-03-23T21:33:40.703Z,99666.46
2023-03-23T21:36:08.268Z,99663.00
2023-03-23T21:38:35.006Z,99665.40
2023-03-23T21:41:09.935Z,99661.83
2023-03-23T21:43:39.940Z,99664.63
2023-03-23T21:46:13.318Z,99664.36
2023-03-23T21:48:41.402Z,99665.96
2023-03-23T21:51:12.026Z,99667.89
2023-03-23T21:53:41.505Z,99666.94
2023-03-23T21:56:11.594Z,99663.04
2023-03-23T21:58:38.496Z,99663.02
2023-03-23T22:01:05.691Z,99666.79
2023-03-23T22:03:34.733Z,99671.11
2023-03-23T22:06:16.442Z,99666.56
2023-03-23T22:08:43.817Z,99662.91
2023-03-23T22:11:24.703Z,99661.86
2023-03-23T22:13:55.586Z,99663.42
2023-03-23T22:16:23.208Z,99663.08
2023-03-23T22:18:51.956Z,99665.25
2023-03-23T22:21:19.323Z,99663.11
2023-03-23T22:23:49.799Z,99658.20
2023-03-23T22:26:16.676Z,99657.54
2023-03-23T22:28:50.496Z,99658.39
2023-03-23T22:31:22.938Z,99654.34
2023-03-23T22:33:55.886Z,99656.52
2023-03-23T22:36:24.392Z,99654.13
2023-03-23T22:38:51.760Z,99654.32
2023-03-23T22:41:21.883Z,99661.81
2023-03-23T22:43:48.627Z,99663.73
2023-03-23T22:46:15.694Z,99665.36
2023-03-23T22:48:43.978Z,99663.78
2023-03-23T22:51:11.606Z,99663.26
2023-03-23T22:53:38.563Z,99662.58
2023-03-23T22:56:08.951Z,99661.58
2023-03-23T22:58:36.466Z,99660.01
2023-03-23T23:01:08.322Z,99662.79
2023-03-23T23:03:36.162Z,99666.70
2023-03-23T23:06:02.994Z,99665.17
2023-03-23T23:08:32.302Z,99666.09
2023-03-23T23:11:01.072Z,99668.54
2023-03-23T23:13:27.855Z,99666.91
2023-03-23T23:15:56.352Z,99665.59
2023-03-23T23:18:25.313Z,99665.73
2023-03-23T23:20:56.947Z,99662.35
2023-03-23T23:23:24.824Z,99663.33
2023-03-23T23:25:51.770Z,99655.05
2023-03-23T23:28:19.728Z,99649.73
2023-03-23T23:30:47.541Z,99646.07
2023-03-23T23:33:14.996Z,99641.52
2023-03-23T23:35:42.585Z,99638.78
2023-03-23T23:38:11.117Z,99644.67
2023-03-23T23:40:40.607Z,99644.02
2023-03-23T23:43:10.423Z,99648.02
2023-03-23T23:45:37.456Z,99655.67
2023-03-23T23:48:05.517Z,99655.63
2023-03-23T23:50:33.100Z,99644.24
2023-03-23T23:52:59.774Z,99639.46
2023-03-23T23:55:26.873Z,99632.20
2023-03-23T23:57:53.595Z,99629.11
